Time;durP1;ratioP1;P1;durP2;ratioP2;P2;SDS_P1;SDS_P2;PMS_P1;PMS_P2;Temp;Humidity;BMP_temperature;BMP_pressure;BME280_temperature;BME280_humidity;BME280_pressure;Samples;Min_cycle;Max_cycle;Signal;HPM_P1;HPM_P2
2021/04/18 00:03:54;;;;;;;0.73;0.22;;;10.50;62.40;;;;;;20309308;28;20284;-73
2021/04/18 00:13:54;;;;;;;0.60;0.33;;;10.50;62.40;;;;;;20407932;29;20048;-72
2021/04/18 00:23:55;;;;;;;1.25;0.47;;;10.50;62.50;;;;;;20395085;29;20394;-71
2021/04/18 00:33:56;;;;;;;0.28;0.25;;;10.50;62.50;;;;;;20379411;29;20047;-70
2021/04/18 00:43:56;;;;;;;2.55;0.68;;;10.50;62.60;;;;;;20379080;29;20035;-69
2021/04/18 00:53:57;;;;;;;1.08;0.43;;;10.50;62.60;;;;;;20409977;29;20038;-70
2021/04/18 01:03:57;;;;;;;0.30;0.30;;;10.50;62.60;;;;;;20409150;29;20123;-70
2021/04/18 01:13:59;;;;;;;0.70;0.47;;;10.50;62.70;;;;;;20410007;29;20295;-70
2021/04/18 01:23:59;;;;;;;0.55;0.47;;;10.50;62.70;;;;;;20392584;29;20104;-71
2021/04/18 01:34:18;;;;;;;0.30;0.30;;;10.50;62.70;;;;;;20408925;29;21067;-70
2021/04/18 01:44:24;;;;;;;0.50;0.35;;;10.50;62.80;;;;;;20409531;29;20053;-70
2021/04/18 01:54:24;;;;;;;0.30;0.30;;;10.50;62.90;;;;;;20408024;29;20142;-71
2021/04/18 02:04:26;;;;;;;2.63;0.65;;;10.50;62.90;;;;;;20391688;29;20130;-71
2021/04/18 02:14:33;;;;;;;0.82;0.82;;;10.50;63.60;;;;;;20380760;28;20465;-71
2021/04/18 02:24:40;;;;;;;1.17;0.50;;;10.50;63.00;;;;;;20390234;29;20067;-71
2021/04/18 02:34:42;;;;;;;0.38;0.32;;;10.50;63.00;;;;;;20404623;29;20490;-72
2021/04/18 02:44:44;;;;;;;1.05;0.47;;;10.50;63.00;;;;;;20388717;29;20035;-71
2021/04/18 02:54:45;;;;;;;1.67;0.40;;;10.50;63.10;;;;;;20398294;29;20066;-71
2021/04/18 03:04:51;;;;;;;1.02;0.57;;;10.50;63.10;;;;;;20401246;29;20069;-70
2021/04/18 03:14:51;;;;;;;0.40;0.40;;;10.50;63.10;;;;;;20400362;29;20059;-72
2021/04/18 03:24:55;;;;;;;1.48;0.40;;;10.50;63.20;;;;;;20416425;29;20032;-70
2021/04/18 03:34:56;;;;;;;0.45;0.30;;;10.50;63.20;;;;;;20415276;29;20040;-70
2021/04/18 03:44:57;;;;;;;0.68;0.45;;;10.40;63.10;;;;;;20414521;29;20488;-70
2021/04/18 03:54:58;;;;;;;0.40;0.35;;;10.50;63.20;;;;;;20398953;28;20040;-70
2021/04/18 04:04:59;;;;;;;3.15;0.88;;;10.40;63.20;;;;;;20428772;28;20517;-70
2021/04/18 04:14:59;;;;;;;1.17;0.52;;;10.40;63.20;;;;;;20402369;28;20134;-71
2021/04/18 04:25:01;;;;;;;2.13;0.73;;;10.40;63.30;;;;;;20380277;29;20035;-70
2021/04/18 04:35:01;;;;;;;0.57;0.45;;;10.40;63.40;;;;;;20411617;29;20433;-71
2021/04/18 04:45:03;;;;;;;2.90;0.47;;;10.40;63.50;;;;;;20394569;29;20181;-72
2021/04/18 04:55:04;;;;;;;0.63;0.60;;;10.40;63.50;;;;;;20394167;28;20040;-70
2021/04/18 05:05:05;;;;;;;0.43;0.38;;;10.40;63.50;;;;;;20408700;29;20048;-72
2021/04/18 05:15:06;;;;;;;1.23;0.60;;;10.40;63.50;;;;;;20392565;28;20547;-71
2021/04/18 05:25:07;;;;;;;0.90;0.55;;;10.40;63.60;;;;;;20398527;28;20047;-70
2021/04/18 05:35:09;;;;;;;0.43;0.25;;;10.40;63.60;;;;;;20407509;29;20405;-72
2021/04/18 05:45:09;;;;;;;2.72;0.60;;;10.40;63.60;;;;;;20391346;29;20668;-71
2021/04/18 05:55:10;;;;;;;0.88;0.40;;;10.40;63.60;;;;;;20375383;29;20100;-70
2021/04/18 06:05:11;;;;;;;0.85;0.47;;;10.40;63.70;;;;;;20390583;29;20093;-71
2021/04/18 06:15:12;;;;;;;0.60;0.32;;;10.40;63.70;;;;;;20380470;28;20028;-71
2021/04/18 06:25:15;;;;;;;0.70;0.32;;;10.40;63.80;;;;;;20331132;29;20051;-72
2021/04/18 06:35:15;;;;;;;1.60;0.77;;;10.40;63.80;;;;;;20308699;28;20044;-73
2021/04/18 06:45:16;;;;;;;1.27;1.00;;;10.40;63.80;;;;;;20339037;28;20043;-73
2021/04/18 06:55:17;;;;;;;2.22;0.80;;;10.40;63.90;;;;;;20338791;29;20040;-72
2021/04/18 07:05:19;;;;;;;2.20;0.95;;;10.40;64.10;;;;;;20318977;28;20132;-70
2021/04/18 07:15:37;;;;;;;1.27;0.85;;;10.50;64.50;;;;;;20315758;28;20486;-72
2021/04/18 07:25:38;;;;;;;1.45;0.82;;;10.40;64.70;;;;;;20321580;29;20072;-71
2021/04/18 07:35:40;;;;;;;1.40;0.82;;;10.40;64.60;;;;;;20338272;28;20138;-71
2021/04/18 07:45:42;;;;;;;3.15;1.33;;;10.40;64.70;;;;;;20372498;28;20040;-71
2021/04/18 07:55:43;;;;;;;0.73;0.57;;;10.40;64.70;;;;;;20319359;28;20233;-71
2021/04/18 08:05:44;;;;;;;2.33;0.80;;;10.40;64.70;;;;;;20332698;29;20071;-70
2021/04/18 08:15:55;;;;;;;1.23;0.50;;;10.40;64.70;;;;;;20319445;29;20114;-71
2021/04/18 08:26:11;;;;;;;0.57;0.47;;;10.50;65.40;;;;;;20328825;28;20136;-72
2021/04/18 08:36:15;;;;;;;2.28;1.08;;;10.50;64.60;;;;;;20760747;23;20077;-71
2021/04/18 08:46:20;;;;;;;1.63;0.82;;;10.50;64.60;;;;;;20462544;29;20035;-71
2021/04/18 08:56:22;;;;;;;0.77;0.77;;;10.50;64.60;;;;;;20471214;29;20063;-71
2021/04/18 09:06:35;;;;;;;1.85;1.23;;;10.50;64.50;;;;;;20454784;28;20474;-71
2021/04/18 09:16:37;;;;;;;1.30;0.50;;;10.50;64.50;;;;;;20470035;28;20035;-71
2021/04/18 09:26:37;;;;;;;2.63;0.52;;;10.60;64.60;;;;;;20454414;28;20051;-71
2021/04/18 09:36:38;;;;;;;1.02;0.73;;;10.60;64.60;;;;;;20470177;28;20039;-71
2021/04/18 09:46:42;;;;;;;1.08;0.50;;;10.60;64.60;;;;;;20390899;28;20135;-73
2021/04/18 09:56:43;;;;;;;1.08;0.75;;;10.60;64.60;;;;;;20392205;28;20067;-75
2021/04/18 10:06:44;;;;;;;1.33;0.80;;;10.60;64.50;;;;;;20467508;28;20085;-75
2021/04/18 10:16:45;;;;;;;1.08;0.70;;;10.60;64.60;;;;;;20467095;29;20327;-74
2021/04/18 10:26:45;;;;;;;2.10;0.77;;;10.70;64.80;;;;;;20499528;29;20139;-74
2021/04/18 10:36:47;;;;;;;0.40;0.30;;;10.70;64.90;;;;;;20498796;28;20051;-75
2021/04/18 10:46:52;;;;;;;0.50;0.50;;;10.80;65.20;;;;;;20436458;29;20051;-75
2021/04/18 10:56:53;;;;;;;0.45;0.45;;;10.80;65.10;;;;;;20434194;29;20481;-75
2021/04/18 11:06:54;;;;;;;2.03;0.45;;;10.80;65.10;;;;;;20434781;29;20159;-74
2021/04/18 11:16:54;;;;;;;0.45;0.45;;;10.90;65.10;;;;;;20418595;29;20051;-71
2021/04/18 11:26:55;;;;;;;1.60;0.88;;;10.90;65.10;;;;;;20415313;29;20040;-71
2021/04/18 11:36:56;;;;;;;3.40;1.00;;;10.90;65.10;;;;;;20431047;29;20573;-70
2021/04/18 11:46:56;;;;;;;0.73;0.60;;;10.90;65.10;;;;;;20415295;29;20474;-71
2021/04/18 11:56:57;;;;;;;0.88;0.38;;;10.90;65.10;;;;;;20433669;29;20039;-75
2021/04/18 12:06:57;;;;;;;0.90;0.82;;;10.90;65.00;;;;;;20493375;29;20290;-76
2021/04/18 12:16:58;;;;;;;0.55;0.50;;;10.90;65.00;;;;;;20462895;29;20299;-76
2021/04/18 12:26:59;;;;;;;0.68;0.57;;;10.90;64.90;;;;;;20462387;28;20093;-76
2021/04/18 12:36:59;;;;;;;1.70;0.47;;;11.00;64.90;;;;;;20460319;28;20043;-76
2021/04/18 12:47:00;;;;;;;1.20;0.57;;;11.00;64.90;;;;;;20490216;28;20135;-76
2021/04/18 12:57:01;;;;;;;0.77;0.50;;;11.00;64.90;;;;;;20462863;29;20803;-78
2021/04/18 13:07:02;;;;;;;2.83;1.10;;;11.10;65.00;;;;;;20482324;28;20542;-76
2021/04/18 13:17:03;;;;;;;0.63;0.60;;;11.10;65.00;;;;;;20520399;28;20453;-74
2021/04/18 13:27:04;;;;;;;1.50;0.50;;;11.10;65.00;;;;;;20545144;28;20066;-75
2021/04/18 13:37:06;;;;;;;1.20;0.50;;;11.10;65.10;;;;;;20568990;28;20046;-75
2021/04/18 13:47:06;;;;;;;0.43;0.32;;;11.10;65.10;;;;;;20499043;28;20058;-74
2021/04/18 13:57:07;;;;;;;0.20;0.20;;;11.10;65.10;;;;;;20468571;29;20106;-76
2021/04/18 14:07:08;;;;;;;0.73;0.38;;;11.10;65.10;;;;;;20454847;29;20054;-75
2021/04/18 14:17:09;;;;;;;0.55;0.50;;;11.10;65.10;;;;;;20481167;29;20035;-73
2021/04/18 14:27:10;;;;;;;1.95;1.15;;;11.10;65.10;;;;;;20484854;29;20039;-74
2021/04/18 14:37:11;;;;;;;1.58;0.57;;;11.10;65.20;;;;;;20452625;28;20070;-72
2021/04/18 14:47:11;;;;;;;0.30;0.30;;;11.10;65.20;;;;;;20475882;28;20345;-75
2021/04/18 14:57:12;;;;;;;2.00;0.33;;;11.10;65.20;;;;;;20485634;29;20043;-77
2021/04/18 15:07:13;;;;;;;3.50;0.88;;;11.10;65.30;;;;;;20496600;29;20773;-77
2021/04/18 15:17:13;;;;;;;0.45;0.40;;;11.10;65.50;;;;;;20567436;28;20401;-76
2021/04/18 15:27:15;;;;;;;1.83;0.57;;;11.10;65.60;;;;;;20524501;28;20043;-76
2021/04/18 15:37:17;;;;;;;0.43;0.35;;;11.10;65.70;;;;;;20472752;28;20451;-75
2021/04/18 15:47:17;;;;;;;1.17;0.57;;;11.10;65.90;;;;;;20500034;28;20494;-75
2021/04/18 15:57:18;;;;;;;3.42;1.00;;;11.10;66.00;;;;;;20400658;29;20046;-75
2021/04/18 16:07:19;;;;;;;14.40;0.77;;;11.20;66.20;;;;;;20427212;29;20081;-76
2021/04/18 16:17:19;;;;;;;0.57;0.50;;;11.10;66.30;;;;;;20494238;29;20067;-73
2021/04/18 16:27:20;;;;;;;0.98;0.60;;;11.10;66.40;;;;;;20642629;28;20542;-74
2021/04/18 16:37:21;;;;;;;0.50;0.45;;;11.10;66.60;;;;;;20579306;28;20045;-75
2021/04/18 16:47:23;;;;;;;0.90;0.55;;;11.10;66.70;;;;;;20553526;28;20043;-75
2021/04/18 16:57:23;;;;;;;0.45;0.38;;;11.10;66.80;;;;;;20472602;28;20516;-75
2021/04/18 17:07:24;;;;;;;4.18;1.20;;;11.10;67.00;;;;;;20485544;29;20118;-75
2021/04/18 17:17:24;;;;;;;4.85;1.33;;;11.10;67.10;;;;;;20458050;29;20053;-79
2021/04/18 17:27:27;;;;;;;1.17;0.70;;;11.20;67.30;;;;;;20472627;29;20047;-73
2021/04/18 17:37:28;;;;;;;0.85;0.75;;;11.10;67.40;;;;;;20486632;28;20287;-71
2021/04/18 17:47:28;;;;;;;0.80;0.57;;;11.10;67.50;;;;;;20470543;29;20038;-71
2021/04/18 17:57:29;;;;;;;0.60;0.45;;;11.10;67.60;;;;;;20470287;29;20807;-71
2021/04/18 18:07:30;;;;;;;1.10;0.67;;;11.10;67.70;;;;;;20469940;29;20042;-71
2021/04/18 18:17:30;;;;;;;0.23;0.20;;;11.20;67.90;;;;;;20486672;28;20309;-73
2021/04/18 18:27:31;;;;;;;0.93;0.43;;;11.20;68.00;;;;;;20490583;28;20294;-73
2021/04/18 18:37:32;;;;;;;1.58;0.80;;;11.10;68.10;;;;;;20462549;28;20039;-72
2021/04/18 18:47:33;;;;;;;0.68;0.68;;;11.20;68.20;;;;;;20481266;28;20073;-71
2021/04/18 18:57:34;;;;;;;3.27;0.63;;;11.20;68.30;;;;;;20393237;28;20035;-73
2021/04/18 19:07:34;;;;;;;2.42;0.77;;;11.10;68.30;;;;;;20491879;28;20492;-74
2021/04/18 19:17:35;;;;;;;1.20;0.63;;;11.10;68.50;;;;;;20455341;28;20063;-73
2021/04/18 19:27:36;;;;;;;2.63;0.98;;;11.10;68.50;;;;;;20405421;29;20046;-72
2021/04/18 19:37:37;;;;;;;4.32;0.85;;;11.10;68.70;;;;;;20425400;28;20212;-73
2021/04/18 19:47:38;;;;;;;1.93;0.87;;;11.20;68.90;;;;;;20486866;28;20031;-71
2021/04/18 19:57:38;;;;;;;1.58;0.95;;;11.10;68.80;;;;;;20441781;28;20330;-70
2021/04/18 20:07:40;;;;;;;1.23;0.73;;;11.10;68.90;;;;;;20355020;28;20460;-70
2021/04/18 20:17:41;;;;;;;1.33;0.43;;;11.10;68.90;;;;;;20450749;28;20298;-70
2021/04/18 20:27:42;;;;;;;0.82;0.57;;;11.10;68.80;;;;;;20424560;28;20069;-73
2021/04/18 20:37:43;;;;;;;2.65;0.75;;;11.00;68.70;;;;;;20421989;28;20508;-71
2021/04/18 20:47:44;;;;;;;0.70;0.50;;;11.10;68.70;;;;;;20428161;28;20046;-74
2021/04/18 20:57:44;;;;;;;1.45;0.60;;;11.10;68.50;;;;;;20462983;28;20031;-70
2021/04/18 21:07:45;;;;;;;0.98;0.77;;;11.10;68.40;;;;;;20469972;29;20099;-70
2021/04/18 21:17:46;;;;;;;1.05;0.60;;;11.00;68.30;;;;;;20488297;29;20560;-70
2021/04/18 21:27:46;;;;;;;0.60;0.50;;;11.10;68.20;;;;;;20471980;29;20031;-71
2021/04/18 21:37:47;;;;;;;2.08;0.55;;;11.00;68.10;;;;;;20471670;28;20036;-70
2021/04/18 21:47:48;;;;;;;0.70;0.50;;;11.10;68.10;;;;;;20470619;29;20630;-70
2021/04/18 21:57:49;;;;;;;1.10;0.73;;;11.10;68.10;;;;;;20494456;28;20744;-69
2021/04/18 22:07:50;;;;;;;1.55;0.70;;;11.10;68.10;;;;;;20499793;29;20356;-71
2021/04/18 22:17:51;;;;;;;0.85;0.60;;;11.00;68.00;;;;;;20467282;28;20046;-70
2021/04/18 22:27:51;;;;;;;2.25;1.02;;;11.10;68.00;;;;;;20482857;29;20478;-71
2021/04/18 22:37:52;;;;;;;0.52;0.45;;;11.10;68.00;;;;;;20481797;29;20150;-70
2021/04/18 22:47:52;;;;;;;0.47;0.45;;;11.00;67.90;;;;;;20497977;29;20433;-69
2021/04/18 22:57:53;;;;;;;1.92;1.45;;;11.00;67.80;;;;;;20497337;29;20035;-70
2021/04/18 23:07:53;;;;;;;1.45;0.95;;;11.00;67.70;;;;;;20479528;28;20452;-72
2021/04/18 23:17:54;;;;;;;0.80;0.40;;;11.00;67.70;;;;;;20495375;29;20093;-69
2021/04/18 23:27:55;;;;;;;1.05;0.70;;;11.00;67.60;;;;;;20494885;29;20085;-70
2021/04/18 23:37:55;;;;;;;1.15;0.60;;;11.00;67.60;;;;;;20476839;28;20693;-69
2021/04/18 23:47:56;;;;;;;0.98;0.63;;;11.00;67.50;;;;;;20477674;29;20628;-70
2021/04/18 23:57:56;;;;;;;0.90;0.50;;;11.10;67.50;;;;;;20477263;29;20027;-69
